PWSweather.com
Personal Weather Stations
Station Observations
SUBOTICARS
SuboticaYU

SuboticaYU

Lat: 46.1296717, Lon: 19.641551

Elevation: 361

Station Type: Nexus

http://sumeteo.info

High Low Average
Temperature 53.6°F12.0°C 33.4°F0.8°C 41.4°F5.2°C
Dew Point 38.1°F3.4°C 24.7°F-4.1°C 29.9°F-1.2°C
Winds 13.8 mph 22.2 kmh 1.2 mph 1.9 kmh 7.0 mph SW11.3 kmh SW
Wind Gusts 18.4 mph29.6 kmh 3.5 mph5.6 kmh 8.0 mph12.9 kmh
Humidity 72% 54% 64%
Pressure 29.61 in1002.7 mb 29.54 in1000.3 mb -
Precipitation 0.00 in0.0 mm - -
Hour Temp Dew Point Humidity Winds Wind Gusts Pressure Precip Precip Rate Daily Precip Total
12:00 AM 34.3°F1.3°C 25.6°F-3.6°C 70% 3.5 mph SSW5.6 kmh SSW 4.6 mph7.4 kmh 29.60 in1002.4 mb - 0.00 in0.0 mm 0.00 in0.0 mm
12:10 AM 34.3°F1.3°C 25.6°F-3.6°C 70% 3.5 mph SSW5.6 kmh SSW 3.5 mph5.6 kmh 29.60 in1002.4 mb - 0.00 in0.0 mm 0.00 in0.0 mm
12:15 AM 34.3°F1.3°C 25.6°F-3.6°C 70% 3.5 mph WSW5.6 kmh WSW 3.5 mph5.6 kmh 29.61 in1002.7 mb - 0.00 in0.0 mm 0.00 in0.0 mm
12:20 AM 34.3°F1.3°C 25.6°F-3.6°C 70% 3.5 mph SW5.6 kmh SW 3.5 mph5.6 kmh 29.61 in1002.7 mb - 0.00 in0.0 mm 0.00 in0.0 mm
12:25 AM 34.3°F1.3°C 25.6°F-3.6°C 70% 3.5 mph WSW5.6 kmh WSW 3.5 mph5.6 kmh 29.61 in1002.7 mb - 0.00 in0.0 mm 0.00 in0.0 mm
12:30 AM 34.2°F1.2°C 25.4°F-3.7°C 70% 2.3 mph WSW3.7 kmh WSW 3.5 mph5.6 kmh 29.61 in1002.7 mb - 0.00 in0.0 mm 0.00 in0.0 mm
12:35 AM 34.2°F1.2°C 25.4°F-3.7°C 70% 2.3 mph SW3.7 kmh SW 3.5 mph5.6 kmh 29.61 in1002.7 mb - 0.00 in0.0 mm 0.00 in0.0 mm
12:40 AM 34.1°F1.2°C 25.3°F-3.7°C 70% 2.3 mph SSW3.7 kmh SSW 3.5 mph5.6 kmh 29.61 in1002.7 mb - 0.00 in0.0 mm 0.00 in0.0 mm
12:45 AM 34.0°F1.1°C 25.2°F-3.8°C 70% 2.3 mph WSW3.7 kmh WSW 4.6 mph7.4 kmh 29.60 in1002.4 mb - 0.00 in0.0 mm 0.00 in0.0 mm
12:50 AM 33.8°F1.0°C 25.0°F-3.9°C 70% 2.3 mph SW3.7 kmh SW 3.5 mph5.6 kmh 29.60 in1002.4 mb - 0.00 in0.0 mm 0.00 in0.0 mm
12:55 AM 33.6°F0.9°C 24.9°F-3.9°C 70% 3.5 mph SSW5.6 kmh SSW 3.5 mph5.6 kmh 29.60 in1002.4 mb - 0.00 in0.0 mm 0.00 in0.0 mm
01:00 AM 33.4°F0.8°C 24.7°F-4.1°C 70% 3.5 mph SSW5.6 kmh SSW 3.5 mph5.6 kmh 29.60 in1002.4 mb - 0.00 in0.0 mm 0.00 in0.0 mm
01:10 AM 33.6°F0.9°C 25.2°F-3.8°C 71% 4.6 mph SSW7.4 kmh SSW 4.6 mph7.4 kmh 29.60 in1002.4 mb - 0.00 in0.0 mm 0.00 in0.0 mm
01:15 AM 33.6°F0.9°C 25.2°F-3.8°C 71% 4.6 mph SW7.4 kmh SW 4.6 mph7.4 kmh 29.59 in1002.0 mb - 0.00 in0.0 mm 0.00 in0.0 mm
01:20 AM 33.6°F0.9°C 25.2°F-3.8°C 71% 4.6 mph SSW7.4 kmh SSW 5.8 mph9.3 kmh 29.59 in1002.0 mb - 0.00 in0.0 mm 0.00 in0.0 mm
01:25 AM 33.6°F0.9°C 25.6°F-3.6°C 72% 4.6 mph SSW7.4 kmh SSW 6.9 mph11.1 kmh 29.59 in1002.0 mb - 0.00 in0.0 mm 0.00 in0.0 mm
01:30 AM 33.6°F0.9°C 25.6°F-3.6°C 72% 4.6 mph SW7.4 kmh SW 5.8 mph9.3 kmh 29.60 in1002.4 mb - 0.00 in0.0 mm 0.00 in0.0 mm
01:35 AM 33.8°F1.0°C 25.7°F-3.5°C 72% 5.8 mph SSW9.3 kmh SSW 6.9 mph11.1 kmh 29.60 in1002.4 mb - 0.00 in0.0 mm 0.00 in0.0 mm
01:40 AM 33.9°F1.1°C 25.8°F-3.4°C 72% 5.8 mph SSW9.3 kmh SSW 5.8 mph9.3 kmh 29.60 in1002.4 mb - 0.00 in0.0 mm 0.00 in0.0 mm
01:45 AM 33.8°F1.0°C 25.7°F-3.5°C 72% 4.6 mph SSW7.4 kmh SSW 5.8 mph9.3 kmh 29.59 in1002.0 mb - 0.00 in0.0 mm 0.00 in0.0 mm
01:50 AM 33.8°F1.0°C 25.7°F-3.5°C 72% 3.5 mph SW5.6 kmh SW 5.8 mph9.3 kmh 29.59 in1002.0 mb - 0.00 in0.0 mm 0.00 in0.0 mm
01:55 AM 33.8°F1.0°C 25.7°F-3.5°C 72% 5.8 mph SSW9.3 kmh SSW 5.8 mph9.3 kmh 29.59 in1002.0 mb - 0.00 in0.0 mm 0.00 in0.0 mm
02:00 AM 33.8°F1.0°C 25.7°F-3.5°C 72% 4.6 mph SSW7.4 kmh SSW 4.6 mph7.4 kmh 29.60 in1002.4 mb - 0.00 in0.0 mm 0.00 in0.0 mm
02:10 AM 33.8°F1.0°C 25.7°F-3.5°C 72% 5.8 mph SW9.3 kmh SW 5.8 mph9.3 kmh 29.60 in1002.4 mb - 0.00 in0.0 mm 0.00 in0.0 mm
02:15 AM 33.8°F1.0°C 25.7°F-3.5°C 72% 4.6 mph SSW7.4 kmh SSW 5.8 mph9.3 kmh 29.60 in1002.4 mb - 0.00 in0.0 mm 0.00 in0.0 mm
02:20 AM 33.8°F1.0°C 25.7°F-3.5°C 72% 4.6 mph SSW7.4 kmh SSW 5.8 mph9.3 kmh 29.60 in1002.4 mb - 0.00 in0.0 mm 0.00 in0.0 mm
02:25 AM 34.0°F1.1°C 25.9°F-3.4°C 72% 4.6 mph SSW7.4 kmh SSW 6.9 mph11.1 kmh 29.60 in1002.4 mb - 0.00 in0.0 mm 0.00 in0.0 mm
02:30 AM 34.0°F1.1°C 25.9°F-3.4°C 72% 3.5 mph SSW5.6 kmh SSW 4.6 mph7.4 kmh 29.59 in1002.0 mb - 0.00 in0.0 mm 0.00 in0.0 mm
02:35 AM 34.2°F1.2°C 26.1°F-3.3°C 72% 4.6 mph SSW7.4 kmh SSW 6.9 mph11.1 kmh 29.59 in1002.0 mb - 0.00 in0.0 mm 0.00 in0.0 mm
02:40 AM 34.2°F1.2°C 26.1°F-3.3°C 72% 5.8 mph SW9.3 kmh SW 8.1 mph13.0 kmh 29.59 in1002.0 mb - 0.00 in0.0 mm 0.00 in0.0 mm
02:45 AM 34.2°F1.2°C 26.1°F-3.3°C 72% 5.8 mph SSW9.3 kmh SSW 8.1 mph13.0 kmh 29.59 in1002.0 mb - 0.00 in0.0 mm 0.00 in0.0 mm
02:50 AM 34.2°F1.2°C 26.1°F-3.3°C 72% 4.6 mph WSW7.4 kmh WSW 6.9 mph11.1 kmh 29.59 in1002.0 mb - 0.00 in0.0 mm 0.00 in0.0 mm
02:55 AM 34.2°F1.2°C 26.1°F-3.3°C 72% 4.6 mph SW7.4 kmh SW 4.6 mph7.4 kmh 29.59 in1002.0 mb - 0.00 in0.0 mm 0.00 in0.0 mm
03:00 AM 34.2°F1.2°C 26.1°F-3.3°C 72% 5.8 mph SSW9.3 kmh SSW 5.8 mph9.3 kmh 29.59 in1002.0 mb - 0.00 in0.0 mm 0.00 in0.0 mm
03:10 AM 34.4°F1.3°C 26.3°F-3.2°C 72% 6.9 mph SW11.1 kmh SW 10.4 mph16.7 kmh 29.59 in1002.0 mb - 0.00 in0.0 mm 0.00 in0.0 mm
03:15 AM 34.3°F1.3°C 26.2°F-3.2°C 72% 5.8 mph SW9.3 kmh SW 5.8 mph9.3 kmh 29.59 in1002.0 mb - 0.00 in0.0 mm 0.00 in0.0 mm
03:20 AM 34.2°F1.2°C 26.1°F-3.3°C 72% 5.8 mph SW9.3 kmh SW 6.9 mph11.1 kmh 29.59 in1002.0 mb - 0.00 in0.0 mm 0.00 in0.0 mm
03:25 AM 34.2°F1.2°C 26.1°F-3.3°C 72% 5.8 mph SSW9.3 kmh SSW 8.1 mph13.0 kmh 29.59 in1002.0 mb - 0.00 in0.0 mm 0.00 in0.0 mm
03:30 AM 34.0°F1.1°C 25.9°F-3.4°C 72% 5.8 mph WSW9.3 kmh WSW 8.1 mph13.0 kmh 29.59 in1002.0 mb - 0.00 in0.0 mm 0.00 in0.0 mm
03:35 AM 34.0°F1.1°C 25.9°F-3.4°C 72% 4.6 mph S7.4 kmh S 3.5 mph5.6 kmh 29.59 in1002.0 mb - 0.00 in0.0 mm 0.00 in0.0 mm
03:40 AM 34.2°F1.2°C 26.1°F-3.3°C 72% 5.8 mph SSW9.3 kmh SSW 5.8 mph9.3 kmh 29.59 in1002.0 mb - 0.00 in0.0 mm 0.00 in0.0 mm
03:45 AM 34.0°F1.1°C 25.9°F-3.4°C 72% 5.8 mph SSW9.3 kmh SSW 6.9 mph11.1 kmh 29.58 in1001.7 mb - 0.00 in0.0 mm 0.00 in0.0 mm
03:50 AM 34.0°F1.1°C 25.9°F-3.4°C 72% 4.6 mph SSW7.4 kmh SSW 4.6 mph7.4 kmh 29.58 in1001.7 mb - 0.00 in0.0 mm 0.00 in0.0 mm
03:55 AM 34.2°F1.2°C 26.1°F-3.3°C 72% 4.6 mph SSW7.4 kmh SSW 6.9 mph11.1 kmh 29.58 in1001.7 mb - 0.00 in0.0 mm 0.00 in0.0 mm
04:00 AM 34.3°F1.3°C 26.2°F-3.2°C 72% 4.6 mph SSW7.4 kmh SSW 9.2 mph14.8 kmh 29.58 in1001.7 mb - 0.00 in0.0 mm 0.00 in0.0 mm
04:10 AM 34.9°F1.6°C 26.8°F-2.9°C 72% 6.9 mph SW11.1 kmh SW 9.2 mph14.8 kmh 29.58 in1001.7 mb - 0.00 in0.0 mm 0.00 in0.0 mm
04:15 AM 35.1°F1.7°C 26.9°F-2.8°C 72% 6.9 mph SW11.1 kmh SW 8.1 mph13.0 kmh 29.58 in1001.7 mb - 0.00 in0.0 mm 0.00 in0.0 mm
04:20 AM 35.6°F2.0°C 27.1°F-2.7°C 71% 6.9 mph SSW11.1 kmh SSW 6.9 mph11.1 kmh 29.58 in1001.7 mb - 0.00 in0.0 mm 0.00 in0.0 mm
04:25 AM 35.8°F2.1°C 27.3°F-2.6°C 71% 6.9 mph SW11.1 kmh SW 9.2 mph14.8 kmh 29.58 in1001.7 mb - 0.00 in0.0 mm 0.00 in0.0 mm
04:30 AM 35.9°F2.2°C 27.1°F-2.7°C 70% 6.9 mph SW11.1 kmh SW 8.1 mph13.0 kmh 29.58 in1001.7 mb - 0.00 in0.0 mm 0.00 in0.0 mm
04:35 AM 36.0°F2.2°C 27.2°F-2.7°C 70% 6.9 mph SW11.1 kmh SW 8.1 mph13.0 kmh 29.58 in1001.7 mb - 0.00 in0.0 mm 0.00 in0.0 mm
04:40 AM 36.0°F2.2°C 27.1°F-2.7°C 70% 9.2 mph SSW14.8 kmh SSW 10.4 mph16.7 kmh 29.58 in1001.7 mb - 0.00 in0.0 mm 0.00 in0.0 mm
04:45 AM 36.1°F2.3°C 27.3°F-2.6°C 70% 8.1 mph SW13.0 kmh SW 10.4 mph16.7 kmh 29.58 in1001.7 mb - 0.00 in0.0 mm 0.00 in0.0 mm
04:50 AM 36.1°F2.3°C 27.3°F-2.6°C 70% 6.9 mph SSW11.1 kmh SSW 6.9 mph11.1 kmh 29.58 in1001.7 mb - 0.00 in0.0 mm 0.00 in0.0 mm
04:55 AM 36.0°F2.2°C 27.1°F-2.7°C 70% 6.9 mph SSW11.1 kmh SSW 9.2 mph14.8 kmh 29.58 in1001.7 mb - 0.00 in0.0 mm 0.00 in0.0 mm
05:00 AM 36.0°F2.2°C 27.1°F-2.7°C 70% 6.9 mph SW11.1 kmh SW 8.1 mph13.0 kmh 29.57 in1001.4 mb - 0.00 in0.0 mm 0.00 in0.0 mm
05:10 AM 36.5°F2.5°C 27.3°F-2.6°C 69% 8.1 mph SW13.0 kmh SW 11.5 mph18.5 kmh 29.57 in1001.4 mb - 0.00 in0.0 mm 0.00 in0.0 mm
05:15 AM 36.7°F2.6°C 27.1°F-2.7°C 68% 8.1 mph SSW13.0 kmh SSW 10.4 mph16.7 kmh 29.57 in1001.4 mb - 0.00 in0.0 mm 0.00 in0.0 mm
05:20 AM 36.7°F2.6°C 27.1°F-2.7°C 68% 8.1 mph SW13.0 kmh SW 10.4 mph16.7 kmh 29.57 in1001.4 mb - 0.00 in0.0 mm 0.00 in0.0 mm
05:25 AM 36.7°F2.6°C 27.1°F-2.7°C 68% 8.1 mph SSW13.0 kmh SSW 9.2 mph14.8 kmh 29.57 in1001.4 mb - 0.00 in0.0 mm 0.00 in0.0 mm
05:30 AM 36.7°F2.6°C 27.1°F-2.7°C 68% 8.1 mph SW13.0 kmh SW 9.2 mph14.8 kmh 29.57 in1001.4 mb - 0.00 in0.0 mm 0.00 in0.0 mm
05:35 AM 36.7°F2.6°C 27.2°F-2.7°C 68% 8.1 mph SSW13.0 kmh SSW 10.4 mph16.7 kmh 29.57 in1001.4 mb - 0.00 in0.0 mm 0.00 in0.0 mm
05:40 AM 37.0°F2.8°C 27.1°F-2.7°C 67% 9.2 mph SSW14.8 kmh SSW 12.7 mph20.4 kmh 29.57 in1001.4 mb - 0.00 in0.0 mm 0.00 in0.0 mm
05:45 AM 36.9°F2.7°C 26.9°F-2.8°C 67% 8.1 mph SSW13.0 kmh SSW 10.4 mph16.7 kmh 29.57 in1001.4 mb - 0.00 in0.0 mm 0.00 in0.0 mm
05:50 AM 36.9°F2.7°C 26.9°F-2.8°C 67% 8.1 mph WSW13.0 kmh WSW 9.2 mph14.8 kmh 29.57 in1001.4 mb - 0.00 in0.0 mm 0.00 in0.0 mm
05:55 AM 36.9°F2.7°C 26.9°F-2.8°C 67% 6.9 mph SW11.1 kmh SW 9.2 mph14.8 kmh 29.57 in1001.4 mb - 0.00 in0.0 mm 0.00 in0.0 mm
06:00 AM 36.7°F2.6°C 26.8°F-2.9°C 67% 6.9 mph SSW11.1 kmh SSW 9.2 mph14.8 kmh 29.57 in1001.4 mb - 0.00 in0.0 mm 0.00 in0.0 mm
06:10 AM 36.7°F2.6°C 26.7°F-2.9°C 67% 8.1 mph SSW13.0 kmh SSW 10.4 mph16.7 kmh 29.57 in1001.4 mb - 0.00 in0.0 mm 0.00 in0.0 mm
06:15 AM 36.9°F2.7°C 26.9°F-2.8°C 67% 8.1 mph SSW13.0 kmh SSW 8.1 mph13.0 kmh 29.57 in1001.4 mb - 0.00 in0.0 mm 0.00 in0.0 mm
06:20 AM 36.7°F2.6°C 26.7°F-2.9°C 67% 8.1 mph SSW13.0 kmh SSW 11.5 mph18.5 kmh 29.57 in1001.4 mb - 0.00 in0.0 mm 0.00 in0.0 mm
06:25 AM 36.7°F2.6°C 26.7°F-2.9°C 67% 8.1 mph SW13.0 kmh SW 9.2 mph14.8 kmh 29.57 in1001.4 mb - 0.00 in0.0 mm 0.00 in0.0 mm
06:30 AM 36.7°F2.6°C 26.7°F-2.9°C 67% 8.1 mph SSW13.0 kmh SSW 11.5 mph18.5 kmh 29.56 in1001.0 mb - 0.00 in0.0 mm 0.00 in0.0 mm
06:35 AM 36.4°F2.4°C 26.5°F-3.1°C 67% 5.8 mph SW9.3 kmh SW 8.1 mph13.0 kmh 29.56 in1001.0 mb - 0.00 in0.0 mm 0.00 in0.0 mm
06:40 AM 36.3°F2.4°C 26.4°F-3.1°C 67% 6.9 mph SSW11.1 kmh SSW 8.1 mph13.0 kmh 29.56 in1001.0 mb - 0.00 in0.0 mm 0.00 in0.0 mm
06:45 AM 36.0°F2.2°C 26.1°F-3.3°C 67% 6.9 mph SSW11.1 kmh SSW 8.1 mph13.0 kmh 29.57 in1001.4 mb - 0.00 in0.0 mm 0.00 in0.0 mm
06:50 AM 35.8°F2.1°C 25.9°F-3.4°C 67% 6.9 mph SSW11.1 kmh SSW 5.8 mph9.3 kmh 29.57 in1001.4 mb - 0.00 in0.0 mm 0.00 in0.0 mm
06:55 AM 35.6°F2.0°C 26.1°F-3.3°C 68% 5.8 mph SW9.3 kmh SW 8.1 mph13.0 kmh 29.57 in1001.4 mb - 0.00 in0.0 mm 0.00 in0.0 mm
07:00 AM 35.6°F2.0°C 26.1°F-3.3°C 68% 5.8 mph SSW9.3 kmh SSW 6.9 mph11.1 kmh 29.57 in1001.4 mb - 0.00 in0.0 mm 0.00 in0.0 mm
07:10 AM 36.0°F2.2°C 26.4°F-3.1°C 68% 5.8 mph SSW9.3 kmh SSW 5.8 mph9.3 kmh 29.57 in1001.4 mb - 0.00 in0.0 mm 0.00 in0.0 mm
07:15 AM 36.0°F2.2°C 26.4°F-3.1°C 68% 6.9 mph SW11.1 kmh SW 10.4 mph16.7 kmh 29.57 in1001.4 mb - 0.00 in0.0 mm 0.00 in0.0 mm
07:20 AM 36.0°F2.2°C 26.4°F-3.1°C 68% 6.9 mph SSW11.1 kmh SSW 8.1 mph13.0 kmh 29.57 in1001.4 mb - 0.00 in0.0 mm 0.00 in0.0 mm
07:25 AM 36.3°F2.4°C 26.4°F-3.1°C 67% 8.1 mph SSW13.0 kmh SSW 10.4 mph16.7 kmh 29.57 in1001.4 mb - 0.00 in0.0 mm 0.00 in0.0 mm
07:30 AM 36.3°F2.4°C 26.4°F-3.1°C 67% 6.9 mph SSW11.1 kmh SSW 9.2 mph14.8 kmh 29.57 in1001.4 mb - 0.00 in0.0 mm 0.00 in0.0 mm
07:35 AM 36.3°F2.4°C 26.4°F-3.1°C 67% 6.9 mph SW11.1 kmh SW 8.1 mph13.0 kmh 29.57 in1001.4 mb - 0.00 in0.0 mm 0.00 in0.0 mm
07:40 AM 36.3°F2.4°C 26.4°F-3.1°C 67% 6.9 mph SSW11.1 kmh SSW 10.4 mph16.7 kmh 29.57 in1001.4 mb - 0.00 in0.0 mm 0.00 in0.0 mm
07:45 AM 36.1°F2.3°C 26.2°F-3.2°C 67% 8.1 mph SSW13.0 kmh SSW 8.1 mph13.0 kmh 29.57 in1001.4 mb - 0.00 in0.0 mm 0.00 in0.0 mm
07:50 AM 36.3°F2.4°C 26.4°F-3.1°C 67% 6.9 mph S11.1 kmh S 8.1 mph13.0 kmh 29.57 in1001.4 mb - 0.00 in0.0 mm 0.00 in0.0 mm
07:55 AM 36.3°F2.4°C 26.4°F-3.1°C 67% 6.9 mph SSW11.1 kmh SSW 8.1 mph13.0 kmh 29.57 in1001.4 mb - 0.00 in0.0 mm 0.00 in0.0 mm
08:00 AM 36.5°F2.5°C 26.6°F-3.0°C 67% 6.9 mph SSW11.1 kmh SSW 6.9 mph11.1 kmh 29.57 in1001.4 mb - 0.00 in0.0 mm 0.00 in0.0 mm
08:10 AM 37.0°F2.8°C 27.1°F-2.7°C 67% 8.1 mph SSW13.0 kmh SSW 9.2 mph14.8 kmh 29.57 in1001.4 mb - 0.00 in0.0 mm 0.00 in0.0 mm
08:15 AM 37.2°F2.9°C 27.3°F-2.6°C 67% 6.9 mph SW11.1 kmh SW 8.1 mph13.0 kmh 29.57 in1001.4 mb - 0.00 in0.0 mm 0.00 in0.0 mm
08:20 AM 37.4°F3.0°C 27.1°F-2.7°C 66% 8.1 mph S13.0 kmh S 8.1 mph13.0 kmh 29.57 in1001.4 mb - 0.00 in0.0 mm 0.00 in0.0 mm
08:25 AM 37.5°F3.1°C 27.2°F-2.7°C 66% 5.8 mph WSW9.3 kmh WSW 5.8 mph9.3 kmh 29.57 in1001.4 mb - 0.00 in0.0 mm 0.00 in0.0 mm
08:30 AM 37.8°F3.2°C 27.4°F-2.6°C 66% 8.1 mph SSW13.0 kmh SSW 9.2 mph14.8 kmh 29.59 in1002.0 mb - 0.00 in0.0 mm 0.00 in0.0 mm
08:35 AM 38.2°F3.4°C 27.8°F-2.3°C 66% 8.1 mph SSW13.0 kmh SSW 8.1 mph13.0 kmh 29.59 in1002.0 mb - 0.00 in0.0 mm 0.00 in0.0 mm
08:40 AM 38.5°F3.6°C 27.7°F-2.4°C 65% 10.4 mph SSW16.7 kmh SSW 10.4 mph16.7 kmh 29.59 in1002.0 mb - 0.00 in0.0 mm 0.00 in0.0 mm
08:45 AM 38.7°F3.7°C 27.9°F-2.3°C 65% 8.1 mph SSW13.0 kmh SSW 9.2 mph14.8 kmh 29.59 in1002.0 mb - 0.00 in0.0 mm 0.00 in0.0 mm
08:50 AM 39.0°F3.9°C 27.9°F-2.3°C 64% 10.4 mph WSW16.7 kmh WSW 10.4 mph16.7 kmh 29.59 in1002.0 mb - 0.00 in0.0 mm 0.00 in0.0 mm
08:55 AM 39.2°F4.0°C 28.0°F-2.2°C 64% 10.4 mph SSW16.7 kmh SSW 13.8 mph22.2 kmh 29.59 in1002.0 mb - 0.00 in0.0 mm 0.00 in0.0 mm
09:00 AM 39.5°F4.2°C 28.3°F-2.1°C 64% 9.2 mph SW14.8 kmh SW 12.7 mph20.4 kmh 29.59 in1002.0 mb - 0.00 in0.0 mm 0.00 in0.0 mm
09:10 AM 39.9°F4.4°C 28.3°F-2.1°C 63% 9.2 mph SSW14.8 kmh SSW 12.7 mph20.4 kmh 29.59 in1002.0 mb - 0.00 in0.0 mm 0.00 in0.0 mm
09:15 AM 40.1°F4.5°C 28.5°F-1.9°C 63% 11.5 mph SSW18.5 kmh SSW 16.1 mph25.9 kmh 29.59 in1002.0 mb - 0.00 in0.0 mm 0.00 in0.0 mm
09:20 AM 40.5°F4.7°C 28.8°F-1.8°C 63% 6.9 mph SSW11.1 kmh SSW 9.2 mph14.8 kmh 29.59 in1002.0 mb - 0.00 in0.0 mm 0.00 in0.0 mm
09:25 AM 40.8°F4.9°C 29.1°F-1.6°C 63% 6.9 mph SW11.1 kmh SW 13.8 mph22.2 kmh 29.59 in1002.0 mb - 0.00 in0.0 mm 0.00 in0.0 mm
09:30 AM 41.1°F5.1°C 29.0°F-1.7°C 62% 8.1 mph SW13.0 kmh SW 11.5 mph18.5 kmh 29.59 in1002.0 mb - 0.00 in0.0 mm 0.00 in0.0 mm
09:35 AM 41.2°F5.1°C 29.2°F-1.6°C 62% 10.4 mph SSW16.7 kmh SSW 10.4 mph16.7 kmh 29.59 in1002.0 mb - 0.00 in0.0 mm 0.00 in0.0 mm
09:40 AM 41.5°F5.3°C 29.1°F-1.6°C 61% 10.4 mph SSW16.7 kmh SSW 10.4 mph16.7 kmh 29.59 in1002.0 mb - 0.00 in0.0 mm 0.00 in0.0 mm
09:45 AM 41.9°F5.5°C 29.4°F-1.4°C 61% 8.1 mph SW13.0 kmh SW 8.1 mph13.0 kmh 29.59 in1002.0 mb - 0.00 in0.0 mm 0.00 in0.0 mm
09:50 AM 42.1°F5.6°C 29.6°F-1.3°C 61% 8.1 mph SSW13.0 kmh SSW 9.2 mph14.8 kmh 29.59 in1002.0 mb - 0.00 in0.0 mm 0.00 in0.0 mm
09:55 AM 42.4°F5.8°C 29.9°F-1.2°C 61% 8.1 mph WSW13.0 kmh WSW 11.5 mph18.5 kmh 29.59 in1002.0 mb - 0.00 in0.0 mm 0.00 in0.0 mm
10:00 AM 42.5°F5.8°C 29.6°F-1.3°C 60% 9.2 mph SW14.8 kmh SW 10.4 mph16.7 kmh 29.60 in1002.4 mb - 0.00 in0.0 mm 0.00 in0.0 mm
10:10 AM 43.0°F6.1°C 30.0°F-1.1°C 60% 10.4 mph SSW16.7 kmh SSW 12.7 mph20.4 kmh 29.60 in1002.4 mb - 0.00 in0.0 mm 0.00 in0.0 mm
10:15 AM 43.0°F6.1°C 30.0°F-1.1°C 60% 6.9 mph WSW11.1 kmh WSW 5.8 mph9.3 kmh 29.60 in1002.4 mb - 0.00 in0.0 mm 0.00 in0.0 mm
10:20 AM 43.2°F6.2°C 30.6°F-0.8°C 61% 10.4 mph SSW16.7 kmh SSW 13.8 mph22.2 kmh 29.60 in1002.4 mb - 0.00 in0.0 mm 0.00 in0.0 mm
10:25 AM 43.2°F6.2°C 30.2°F-1.0°C 60% 9.2 mph SSW14.8 kmh SSW 11.5 mph18.5 kmh 29.60 in1002.4 mb - 0.00 in0.0 mm 0.00 in0.0 mm
10:30 AM 43.6°F6.4°C 30.6°F-0.8°C 60% 11.5 mph SSW18.5 kmh SSW 10.4 mph16.7 kmh 29.60 in1002.4 mb - 0.00 in0.0 mm 0.00 in0.0 mm
10:35 AM 43.5°F6.4°C 30.5°F-0.8°C 60% 10.4 mph SSW16.7 kmh SSW 8.1 mph13.0 kmh 29.60 in1002.4 mb - 0.00 in0.0 mm 0.00 in0.0 mm
10:40 AM 43.9°F6.6°C 30.9°F-0.6°C 60% 9.2 mph SW14.8 kmh SW 8.1 mph13.0 kmh 29.60 in1002.4 mb - 0.00 in0.0 mm 0.00 in0.0 mm
10:45 AM 44.4°F6.9°C 31.4°F-0.3°C 60% 9.2 mph SSW14.8 kmh SSW 10.4 mph16.7 kmh 29.60 in1002.4 mb - 0.00 in0.0 mm 0.00 in0.0 mm
10:50 AM 44.6°F7.0°C 31.1°F-0.5°C 59% 9.2 mph SSW14.8 kmh SSW 9.2 mph14.8 kmh 29.60 in1002.4 mb - 0.00 in0.0 mm 0.00 in0.0 mm
10:55 AM 45.0°F7.2°C 31.5°F-0.3°C 59% 10.4 mph W16.7 kmh W 11.5 mph18.5 kmh 29.60 in1002.4 mb - 0.00 in0.0 mm 0.00 in0.0 mm
11:00 AM 45.1°F7.3°C 31.7°F-0.2°C 59% 6.9 mph SSW11.1 kmh SSW 13.8 mph22.2 kmh 29.61 in1002.7 mb - 0.00 in0.0 mm 0.00 in0.0 mm
11:10 AM 45.9°F7.7°C 31.9°F-0.1°C 58% 11.5 mph WSW18.5 kmh WSW 11.5 mph18.5 kmh 29.61 in1002.7 mb - 0.00 in0.0 mm 0.00 in0.0 mm
11:15 AM 46.0°F7.8°C 32.1°F0.1°C 58% 6.9 mph SSW11.1 kmh SSW 12.7 mph20.4 kmh 29.59 in1002.0 mb - 0.00 in0.0 mm 0.00 in0.0 mm
11:20 AM 46.6°F8.1°C 32.1°F0.1°C 57% 11.5 mph SSW18.5 kmh SSW 13.8 mph22.2 kmh 29.59 in1002.0 mb - 0.00 in0.0 mm 0.00 in0.0 mm
11:25 AM 47.0°F8.3°C 32.6°F0.3°C 57% 8.1 mph WSW13.0 kmh WSW 12.7 mph20.4 kmh 29.59 in1002.0 mb - 0.00 in0.0 mm 0.00 in0.0 mm
11:30 AM 47.3°F8.5°C 32.8°F0.4°C 57% 9.2 mph WSW14.8 kmh WSW 11.5 mph18.5 kmh 29.58 in1001.7 mb - 0.00 in0.0 mm 0.00 in0.0 mm
11:35 AM 47.5°F8.6°C 33.0°F0.6°C 57% 12.7 mph WSW20.4 kmh WSW 16.1 mph25.9 kmh 29.58 in1001.7 mb - 0.00 in0.0 mm 0.00 in0.0 mm
11:40 AM 47.7°F8.7°C 33.2°F0.7°C 57% 11.5 mph SSW18.5 kmh SSW 16.1 mph25.9 kmh 29.58 in1001.7 mb - 0.00 in0.0 mm 0.00 in0.0 mm
11:45 AM 48.4°F9.1°C 33.4°F0.8°C 56% 9.2 mph SW14.8 kmh SW 11.5 mph18.5 kmh 29.59 in1002.0 mb - 0.00 in0.0 mm 0.00 in0.0 mm
11:50 AM 48.7°F9.3°C 33.7°F0.9°C 56% 12.7 mph S20.4 kmh S 16.1 mph25.9 kmh 29.59 in1002.0 mb - 0.00 in0.0 mm 0.00 in0.0 mm
11:55 AM 48.9°F9.4°C 33.9°F1.1°C 56% 13.8 mph SSW22.2 kmh SSW 13.8 mph22.2 kmh 29.59 in1002.0 mb - 0.00 in0.0 mm 0.00 in0.0 mm
12:00 PM 49.5°F9.7°C 34.4°F1.3°C 56% 9.2 mph SSW14.8 kmh SSW 12.7 mph20.4 kmh 29.58 in1001.7 mb - 0.00 in0.0 mm 0.00 in0.0 mm
12:10 PM 50.2°F10.1°C 35.1°F1.7°C 56% 9.2 mph SSW14.8 kmh SSW 13.8 mph22.2 kmh 29.58 in1001.7 mb - 0.00 in0.0 mm 0.00 in0.0 mm
12:15 PM 50.2°F10.1°C 34.6°F1.4°C 55% 11.5 mph SW18.5 kmh SW 12.7 mph20.4 kmh 29.57 in1001.4 mb - 0.00 in0.0 mm 0.00 in0.0 mm
12:20 PM 50.5°F10.3°C 35.0°F1.7°C 55% 10.4 mph SW16.7 kmh SW 15.0 mph24.1 kmh 29.57 in1001.4 mb - 0.00 in0.0 mm 0.00 in0.0 mm
12:25 PM 50.5°F10.3°C 35.0°F1.7°C 55% 10.4 mph WSW16.7 kmh WSW 12.7 mph20.4 kmh 29.57 in1001.4 mb - 0.00 in0.0 mm 0.00 in0.0 mm
12:30 PM 50.5°F10.3°C 35.0°F1.7°C 55% 12.7 mph SW20.4 kmh SW 12.7 mph20.4 kmh 29.57 in1001.4 mb - 0.00 in0.0 mm 0.00 in0.0 mm
12:35 PM 50.5°F10.3°C 35.0°F1.7°C 55% 11.5 mph SSW18.5 kmh SSW 18.4 mph29.6 kmh 29.57 in1001.4 mb - 0.00 in0.0 mm 0.00 in0.0 mm
12:40 PM 50.7°F10.4°C 35.1°F1.7°C 55% 11.5 mph SW18.5 kmh SW 13.8 mph22.2 kmh 29.57 in1001.4 mb - 0.00 in0.0 mm 0.00 in0.0 mm
12:45 PM 50.9°F10.5°C 35.3°F1.8°C 55% 10.4 mph SW16.7 kmh SW 9.2 mph14.8 kmh 29.57 in1001.4 mb - 0.00 in0.0 mm 0.00 in0.0 mm
12:50 PM 51.1°F10.6°C 35.9°F2.2°C 56% 12.7 mph SSW20.4 kmh SSW 17.3 mph27.8 kmh 29.57 in1001.4 mb - 0.00 in0.0 mm 0.00 in0.0 mm
12:55 PM 51.2°F10.7°C 36.0°F2.2°C 56% 8.1 mph SSW13.0 kmh SSW 10.4 mph16.7 kmh 29.57 in1001.4 mb - 0.00 in0.0 mm 0.00 in0.0 mm
01:00 PM 51.3°F10.7°C 36.1°F2.3°C 56% 8.1 mph WSW13.0 kmh WSW 10.4 mph16.7 kmh 29.56 in1001.0 mb - 0.00 in0.0 mm 0.00 in0.0 mm
01:10 PM 51.6°F10.9°C 36.4°F2.4°C 56% 10.4 mph SW16.7 kmh SW 12.7 mph20.4 kmh 29.56 in1001.0 mb - 0.00 in0.0 mm 0.00 in0.0 mm
01:15 PM 52.3°F11.3°C 37.1°F2.8°C 56% 6.9 mph SW11.1 kmh SW 8.1 mph13.0 kmh 29.56 in1001.0 mb - 0.00 in0.0 mm 0.00 in0.0 mm
01:20 PM 52.5°F11.4°C 37.2°F2.9°C 56% 10.4 mph SW16.7 kmh SW 12.7 mph20.4 kmh 29.56 in1001.0 mb - 0.00 in0.0 mm 0.00 in0.0 mm
01:25 PM 52.5°F11.4°C 37.3°F2.9°C 56% 10.4 mph SW16.7 kmh SW 12.7 mph20.4 kmh 29.56 in1001.0 mb - 0.00 in0.0 mm 0.00 in0.0 mm
01:30 PM 52.7°F11.5°C 37.4°F3.0°C 56% 9.2 mph WSW14.8 kmh WSW 11.5 mph18.5 kmh 29.55 in1000.7 mb - 0.00 in0.0 mm 0.00 in0.0 mm
01:35 PM 52.9°F11.6°C 37.6°F3.1°C 56% 8.1 mph SW13.0 kmh SW 8.1 mph13.0 kmh 29.55 in1000.7 mb - 0.00 in0.0 mm 0.00 in0.0 mm
01:40 PM 52.9°F11.6°C 37.1°F2.8°C 55% 8.1 mph SW13.0 kmh SW 8.1 mph13.0 kmh 29.55 in1000.7 mb - 0.00 in0.0 mm 0.00 in0.0 mm
01:45 PM 53.1°F11.7°C 37.3°F2.9°C 55% 6.9 mph SW11.1 kmh SW 6.9 mph11.1 kmh 29.55 in1000.7 mb - 0.00 in0.0 mm 0.00 in0.0 mm
01:50 PM 53.2°F11.8°C 37.9°F3.3°C 56% 8.1 mph SSW13.0 kmh SSW 10.4 mph16.7 kmh 29.55 in1000.7 mb - 0.00 in0.0 mm 0.00 in0.0 mm
01:55 PM 53.4°F11.9°C 38.1°F3.4°C 56% 6.9 mph SW11.1 kmh SW 8.1 mph13.0 kmh 29.55 in1000.7 mb - 0.00 in0.0 mm 0.00 in0.0 mm
02:00 PM 53.3°F11.8°C 37.5°F3.1°C 55% 6.9 mph SSW11.1 kmh SSW 8.1 mph13.0 kmh 29.55 in1000.7 mb - 0.00 in0.0 mm 0.00 in0.0 mm
02:10 PM 53.6°F12.0°C 37.3°F2.9°C 54% 8.1 mph SW13.0 kmh SW 11.5 mph18.5 kmh 29.55 in1000.7 mb - 0.00 in0.0 mm 0.00 in0.0 mm
02:15 PM 53.4°F11.9°C 37.2°F2.9°C 54% 9.2 mph SSW14.8 kmh SSW 11.5 mph18.5 kmh 29.55 in1000.7 mb - 0.00 in0.0 mm 0.00 in0.0 mm
02:20 PM 53.6°F12.0°C 37.8°F3.2°C 55% 9.2 mph SSW14.8 kmh SSW 9.2 mph14.8 kmh 29.55 in1000.7 mb - 0.00 in0.0 mm 0.00 in0.0 mm
02:25 PM 53.2°F11.8°C 37.5°F3.1°C 55% 8.1 mph SSW13.0 kmh SSW 8.1 mph13.0 kmh 29.55 in1000.7 mb - 0.00 in0.0 mm 0.00 in0.0 mm
02:30 PM 53.2°F11.8°C 37.5°F3.1°C 55% 8.1 mph WNW13.0 kmh WNW 8.1 mph13.0 kmh 29.55 in1000.7 mb - 0.00 in0.0 mm 0.00 in0.0 mm
02:35 PM 53.6°F12.0°C 37.3°F2.9°C 54% 6.9 mph SW11.1 kmh SW 8.1 mph13.0 kmh 29.55 in1000.7 mb - 0.00 in0.0 mm 0.00 in0.0 mm
02:40 PM 53.1°F11.7°C 37.3°F2.9°C 55% 8.1 mph SSW13.0 kmh SSW 8.1 mph13.0 kmh 29.55 in1000.7 mb - 0.00 in0.0 mm 0.00 in0.0 mm
02:45 PM 52.9°F11.6°C 37.2°F2.9°C 55% 5.8 mph SW9.3 kmh SW 8.1 mph13.0 kmh 29.55 in1000.7 mb - 0.00 in0.0 mm 0.00 in0.0 mm
02:50 PM 52.7°F11.5°C 37.0°F2.8°C 55% 6.9 mph SSW11.1 kmh SSW 9.2 mph14.8 kmh 29.55 in1000.7 mb - 0.00 in0.0 mm 0.00 in0.0 mm
02:55 PM 52.3°F11.3°C 36.6°F2.6°C 55% 5.8 mph SSW9.3 kmh SSW 6.9 mph11.1 kmh 29.55 in1000.7 mb - 0.00 in0.0 mm 0.00 in0.0 mm
03:00 PM 52.2°F11.2°C 36.9°F2.7°C 56% 8.1 mph SW13.0 kmh SW 11.5 mph18.5 kmh 29.55 in1000.7 mb - 0.00 in0.0 mm 0.00 in0.0 mm
03:10 PM 52.2°F11.2°C 36.9°F2.7°C 56% 6.9 mph WSW11.1 kmh WSW 8.1 mph13.0 kmh 29.55 in1000.7 mb - 0.00 in0.0 mm 0.00 in0.0 mm
03:15 PM 51.8°F11.0°C 36.6°F2.6°C 56% 5.8 mph WSW9.3 kmh WSW 5.8 mph9.3 kmh 29.54 in1000.3 mb - 0.00 in0.0 mm 0.00 in0.0 mm
03:20 PM 51.6°F10.9°C 36.9°F2.7°C 57% 5.8 mph SSW9.3 kmh SSW 8.1 mph13.0 kmh 29.54 in1000.3 mb - 0.00 in0.0 mm 0.00 in0.0 mm
03:25 PM 51.3°F10.7°C 36.5°F2.5°C 57% 8.1 mph SSW13.0 kmh SSW 9.2 mph14.8 kmh 29.54 in1000.3 mb - 0.00 in0.0 mm 0.00 in0.0 mm
03:30 PM 51.1°F10.6°C 36.4°F2.4°C 57% 5.8 mph SSW9.3 kmh SSW 5.8 mph9.3 kmh 29.55 in1000.7 mb - 0.00 in0.0 mm 0.00 in0.0 mm
03:35 PM 51.1°F10.6°C 36.8°F2.7°C 58% 5.8 mph SSW9.3 kmh SSW 6.9 mph11.1 kmh 29.55 in1000.7 mb - 0.00 in0.0 mm 0.00 in0.0 mm
03:40 PM 50.9°F10.5°C 36.6°F2.6°C 58% 5.8 mph SSW9.3 kmh SSW 5.8 mph9.3 kmh 29.55 in1000.7 mb - 0.00 in0.0 mm 0.00 in0.0 mm
03:45 PM 50.6°F10.3°C 36.8°F2.7°C 59% 5.8 mph SSW9.3 kmh SSW 6.9 mph11.1 kmh 29.55 in1000.7 mb - 0.00 in0.0 mm 0.00 in0.0 mm
03:50 PM 50.5°F10.3°C 36.3°F2.4°C 58% 6.9 mph SSW11.1 kmh SSW 6.9 mph11.1 kmh 29.55 in1000.7 mb - 0.00 in0.0 mm 0.00 in0.0 mm
03:55 PM 50.4°F10.2°C 36.1°F2.3°C 58% 6.9 mph SSW11.1 kmh SSW 9.2 mph14.8 kmh 29.55 in1000.7 mb - 0.00 in0.0 mm 0.00 in0.0 mm
04:00 PM 50.4°F10.2°C 36.1°F2.3°C 58% 4.6 mph SSW7.4 kmh SSW 5.8 mph9.3 kmh 29.55 in1000.7 mb - 0.00 in0.0 mm 0.00 in0.0 mm
04:10 PM 49.6°F9.8°C 35.9°F2.2°C 59% 5.8 mph SW9.3 kmh SW 8.1 mph13.0 kmh 29.55 in1000.7 mb - 0.00 in0.0 mm 0.00 in0.0 mm
04:15 PM 49.3°F9.6°C 35.5°F1.9°C 59% 5.8 mph SW9.3 kmh SW 5.8 mph9.3 kmh 29.55 in1000.7 mb - 0.00 in0.0 mm 0.00 in0.0 mm
04:20 PM 49.1°F9.5°C 35.4°F1.9°C 59% 4.6 mph SW7.4 kmh SW 5.8 mph9.3 kmh 29.55 in1000.7 mb - 0.00 in0.0 mm 0.00 in0.0 mm
04:25 PM 49.1°F9.5°C 35.3°F1.8°C 59% 6.9 mph SW11.1 kmh SW 8.1 mph13.0 kmh 29.55 in1000.7 mb - 0.00 in0.0 mm 0.00 in0.0 mm
04:30 PM 48.9°F9.4°C 35.2°F1.8°C 59% 5.8 mph SW9.3 kmh SW 6.9 mph11.1 kmh 29.55 in1000.7 mb - 0.00 in0.0 mm 0.00 in0.0 mm
04:35 PM 48.7°F9.3°C 35.0°F1.7°C 59% 4.6 mph SW7.4 kmh SW 6.9 mph11.1 kmh 29.55 in1000.7 mb - 0.00 in0.0 mm 0.00 in0.0 mm
04:40 PM 48.6°F9.2°C 34.9°F1.6°C 59% 5.8 mph SW9.3 kmh SW 6.9 mph11.1 kmh 29.55 in1000.7 mb - 0.00 in0.0 mm 0.00 in0.0 mm
04:45 PM 48.4°F9.1°C 35.1°F1.7°C 60% 5.8 mph SSW9.3 kmh SSW 5.8 mph9.3 kmh 29.55 in1000.7 mb - 0.00 in0.0 mm 0.00 in0.0 mm
04:50 PM 48.2°F9.0°C 35.0°F1.7°C 60% 6.9 mph SSW11.1 kmh SSW 5.8 mph9.3 kmh 29.55 in1000.7 mb - 0.00 in0.0 mm 0.00 in0.0 mm
04:55 PM 48.0°F8.9°C 34.4°F1.3°C 59% 6.9 mph SW11.1 kmh SW 5.8 mph9.3 kmh 29.55 in1000.7 mb - 0.00 in0.0 mm 0.00 in0.0 mm
05:00 PM 47.8°F8.8°C 34.6°F1.4°C 60% 5.8 mph SW9.3 kmh SW 6.9 mph11.1 kmh 29.55 in1000.7 mb - 0.00 in0.0 mm 0.00 in0.0 mm
05:10 PM 47.3°F8.5°C 34.5°F1.4°C 61% 5.8 mph SW9.3 kmh SW 5.8 mph9.3 kmh 29.55 in1000.7 mb - 0.00 in0.0 mm 0.00 in0.0 mm
05:15 PM 47.1°F8.4°C 34.4°F1.3°C 61% 6.9 mph SW11.1 kmh SW 8.1 mph13.0 kmh 29.55 in1000.7 mb - 0.00 in0.0 mm 0.00 in0.0 mm
05:20 PM 46.9°F8.3°C 34.1°F1.2°C 61% 4.6 mph SW7.4 kmh SW 6.9 mph11.1 kmh 29.55 in1000.7 mb - 0.00 in0.0 mm 0.00 in0.0 mm
05:25 PM 46.6°F8.1°C 33.8°F1.0°C 61% 6.9 mph SSW11.1 kmh SSW 6.9 mph11.1 kmh 29.55 in1000.7 mb - 0.00 in0.0 mm 0.00 in0.0 mm
05:30 PM 46.4°F8.0°C 33.7°F0.9°C 61% 4.6 mph SW7.4 kmh SW 6.9 mph11.1 kmh 29.55 in1000.7 mb - 0.00 in0.0 mm 0.00 in0.0 mm
05:35 PM 46.2°F7.9°C 33.5°F0.8°C 61% 6.9 mph SSW11.1 kmh SSW 9.2 mph14.8 kmh 29.55 in1000.7 mb - 0.00 in0.0 mm 0.00 in0.0 mm
05:40 PM 46.2°F7.9°C 33.1°F0.6°C 60% 6.9 mph SW11.1 kmh SW 8.1 mph13.0 kmh 29.55 in1000.7 mb - 0.00 in0.0 mm 0.00 in0.0 mm
05:45 PM 45.9°F7.7°C 33.2°F0.7°C 61% 6.9 mph SSW11.1 kmh SSW 6.9 mph11.1 kmh 29.55 in1000.7 mb - 0.00 in0.0 mm 0.00 in0.0 mm
05:50 PM 45.7°F7.6°C 33.0°F0.6°C 61% 6.9 mph SSW11.1 kmh SSW 8.1 mph13.0 kmh 29.55 in1000.7 mb - 0.00 in0.0 mm 0.00 in0.0 mm
05:55 PM 45.5°F7.5°C 32.8°F0.4°C 61% 6.9 mph SSW11.1 kmh SSW 6.9 mph11.1 kmh 29.55 in1000.7 mb - 0.00 in0.0 mm 0.00 in0.0 mm
06:00 PM 45.3°F7.4°C 32.2°F0.1°C 60% 5.8 mph SSW9.3 kmh SSW 9.2 mph14.8 kmh 29.55 in1000.7 mb - 0.00 in0.0 mm 0.00 in0.0 mm
06:10 PM 44.6°F7.0°C 32.0°F0.0°C 61% 4.6 mph SW7.4 kmh SW 5.8 mph9.3 kmh 29.55 in1000.7 mb - 0.00 in0.0 mm 0.00 in0.0 mm
06:15 PM 44.4°F6.9°C 32.1°F0.1°C 62% 5.8 mph SSW9.3 kmh SSW 5.8 mph9.3 kmh 29.55 in1000.7 mb - 0.00 in0.0 mm 0.00 in0.0 mm
06:20 PM 44.2°F6.8°C 32.0°F0.0°C 62% 6.9 mph SW11.1 kmh SW 6.9 mph11.1 kmh 29.55 in1000.7 mb - 0.00 in0.0 mm 0.00 in0.0 mm
06:25 PM 44.2°F6.8°C 32.0°F0.0°C 62% 4.6 mph SW7.4 kmh SW 4.6 mph7.4 kmh 29.55 in1000.7 mb - 0.00 in0.0 mm 0.00 in0.0 mm
06:30 PM 44.4°F6.9°C 31.8°F-0.1°C 61% 8.1 mph SSW13.0 kmh SSW 10.4 mph16.7 kmh 29.55 in1000.7 mb - 0.00 in0.0 mm 0.00 in0.0 mm
06:35 PM 44.6°F7.0°C 31.6°F-0.2°C 60% 6.9 mph SSW11.1 kmh SSW 9.2 mph14.8 kmh 29.55 in1000.7 mb - 0.00 in0.0 mm 0.00 in0.0 mm
06:40 PM 44.3°F6.8°C 31.2°F-0.4°C 60% 8.1 mph SSW13.0 kmh SSW 10.4 mph16.7 kmh 29.55 in1000.7 mb - 0.00 in0.0 mm 0.00 in0.0 mm
06:45 PM 43.8°F6.6°C 31.2°F-0.4°C 61% 5.8 mph SW9.3 kmh SW 6.9 mph11.1 kmh 29.55 in1000.7 mb - 0.00 in0.0 mm 0.00 in0.0 mm
06:50 PM 43.5°F6.4°C 31.0°F-0.6°C 61% 5.8 mph SSW9.3 kmh SSW 6.9 mph11.1 kmh 29.55 in1000.7 mb - 0.00 in0.0 mm 0.00 in0.0 mm
06:55 PM 43.3°F6.3°C 30.4°F-0.9°C 60% 4.6 mph SW7.4 kmh SW 6.9 mph11.1 kmh 29.55 in1000.7 mb - 0.00 in0.0 mm 0.00 in0.0 mm
07:00 PM 43.3°F6.3°C 30.4°F-0.9°C 60% 4.6 mph SSW7.4 kmh SSW 4.6 mph7.4 kmh 29.55 in1000.7 mb - 0.00 in0.0 mm 0.00 in0.0 mm
07:10 PM 42.8°F6.0°C 29.9°F-1.2°C 60% 4.6 mph SSW7.4 kmh SSW 5.8 mph9.3 kmh 29.55 in1000.7 mb - 0.00 in0.0 mm 0.00 in0.0 mm
07:15 PM 42.6°F5.9°C 30.1°F-1.1°C 61% 4.6 mph SSW7.4 kmh SSW 6.9 mph11.1 kmh 29.55 in1000.7 mb - 0.00 in0.0 mm 0.00 in0.0 mm
07:20 PM 42.4°F5.8°C 29.9°F-1.2°C 61% 5.8 mph SSW9.3 kmh SSW 6.9 mph11.1 kmh 29.55 in1000.7 mb - 0.00 in0.0 mm 0.00 in0.0 mm
07:25 PM 42.4°F5.8°C 29.5°F-1.4°C 60% 6.9 mph SSW11.1 kmh SSW 8.1 mph13.0 kmh 29.55 in1000.7 mb - 0.00 in0.0 mm 0.00 in0.0 mm
07:30 PM 42.4°F5.8°C 29.5°F-1.4°C 60% 6.9 mph SW11.1 kmh SW 6.9 mph11.1 kmh 29.55 in1000.7 mb - 0.00 in0.0 mm 0.00 in0.0 mm
07:35 PM 42.3°F5.7°C 29.8°F-1.2°C 61% 4.6 mph SSW7.4 kmh SSW 5.8 mph9.3 kmh 29.55 in1000.7 mb - 0.00 in0.0 mm 0.00 in0.0 mm
07:40 PM 42.1°F5.6°C 29.6°F-1.3°C 61% 4.6 mph SSW7.4 kmh SSW 4.6 mph7.4 kmh 29.55 in1000.7 mb - 0.00 in0.0 mm 0.00 in0.0 mm
07:45 PM 41.8°F5.4°C 29.3°F-1.5°C 61% 6.9 mph SSW11.1 kmh SSW 8.1 mph13.0 kmh 29.55 in1000.7 mb - 0.00 in0.0 mm 0.00 in0.0 mm
07:50 PM 41.4°F5.2°C 28.9°F-1.7°C 61% 5.8 mph SW9.3 kmh SW 6.9 mph11.1 kmh 29.55 in1000.7 mb - 0.00 in0.0 mm 0.00 in0.0 mm
07:55 PM 41.2°F5.1°C 28.7°F-1.8°C 61% 5.8 mph SSW9.3 kmh SSW 8.1 mph13.0 kmh 29.55 in1000.7 mb - 0.00 in0.0 mm 0.00 in0.0 mm
08:00 PM 40.8°F4.9°C 28.8°F-1.8°C 62% 4.6 mph SW7.4 kmh SW 4.6 mph7.4 kmh 29.55 in1000.7 mb - 0.00 in0.0 mm 0.00 in0.0 mm
08:10 PM 40.5°F4.7°C 28.5°F-1.9°C 62% 5.8 mph SSW9.3 kmh SSW 5.8 mph9.3 kmh 29.55 in1000.7 mb - 0.00 in0.0 mm 0.00 in0.0 mm
08:15 PM 40.5°F4.7°C 28.5°F-1.9°C 62% 5.8 mph SW9.3 kmh SW 5.8 mph9.3 kmh 29.55 in1000.7 mb - 0.00 in0.0 mm 0.00 in0.0 mm
08:20 PM 40.3°F4.6°C 28.3°F-2.1°C 62% 5.8 mph SSW9.3 kmh SSW 6.9 mph11.1 kmh 29.55 in1000.7 mb - 0.00 in0.0 mm 0.00 in0.0 mm
08:25 PM 40.1°F4.5°C 28.5°F-1.9°C 63% 3.5 mph SSW5.6 kmh SSW 3.5 mph5.6 kmh 29.55 in1000.7 mb - 0.00 in0.0 mm 0.00 in0.0 mm
08:30 PM 39.7°F4.3°C 28.2°F-2.1°C 63% 3.5 mph SW5.6 kmh SW 5.8 mph9.3 kmh 29.55 in1000.7 mb - 0.00 in0.0 mm 0.00 in0.0 mm
08:35 PM 39.4°F4.1°C 28.2°F-2.1°C 64% 3.5 mph SSW5.6 kmh SSW 4.6 mph7.4 kmh 29.55 in1000.7 mb - 0.00 in0.0 mm 0.00 in0.0 mm
08:40 PM 39.2°F4.0°C 28.0°F-2.2°C 64% 3.5 mph SSW5.6 kmh SSW 3.5 mph5.6 kmh 29.55 in1000.7 mb - 0.00 in0.0 mm 0.00 in0.0 mm
08:45 PM 39.0°F3.9°C 27.9°F-2.3°C 64% 4.6 mph SSW7.4 kmh SSW 5.8 mph9.3 kmh 29.55 in1000.7 mb - 0.00 in0.0 mm 0.00 in0.0 mm
08:50 PM 38.8°F3.8°C 27.7°F-2.4°C 64% 4.6 mph SW7.4 kmh SW 4.6 mph7.4 kmh 29.55 in1000.7 mb - 0.00 in0.0 mm 0.00 in0.0 mm
08:55 PM 38.8°F3.8°C 27.7°F-2.4°C 64% 4.6 mph SSW7.4 kmh SSW 4.6 mph7.4 kmh 29.55 in1000.7 mb - 0.00 in0.0 mm 0.00 in0.0 mm
09:00 PM 39.2°F4.0°C 28.0°F-2.2°C 64% 6.9 mph SSW11.1 kmh SSW 10.4 mph16.7 kmh 29.55 in1000.7 mb - 0.00 in0.0 mm 0.00 in0.0 mm
09:10 PM 39.4°F4.1°C 28.2°F-2.1°C 64% 4.6 mph SSW7.4 kmh SSW 3.5 mph5.6 kmh 29.55 in1000.7 mb - 0.00 in0.0 mm 0.00 in0.0 mm
09:15 PM 39.4°F4.1°C 28.2°F-2.1°C 64% 5.8 mph SSW9.3 kmh SSW 5.8 mph9.3 kmh 29.55 in1000.7 mb - 0.00 in0.0 mm 0.00 in0.0 mm
09:20 PM 39.4°F4.1°C 28.2°F-2.1°C 64% 5.8 mph SW9.3 kmh SW 6.9 mph11.1 kmh 29.55 in1000.7 mb - 0.00 in0.0 mm 0.00 in0.0 mm
09:25 PM 39.4°F4.1°C 28.2°F-2.1°C 64% 6.9 mph SSW11.1 kmh SSW 6.9 mph11.1 kmh 29.55 in1000.7 mb - 0.00 in0.0 mm 0.00 in0.0 mm
09:30 PM 39.4°F4.1°C 28.2°F-2.1°C 64% 5.8 mph SSW9.3 kmh SSW 5.8 mph9.3 kmh 29.54 in1000.3 mb - 0.00 in0.0 mm 0.00 in0.0 mm
09:35 PM 39.2°F4.0°C 28.0°F-2.2°C 64% 4.6 mph SW7.4 kmh SW 3.5 mph5.6 kmh 29.54 in1000.3 mb - 0.00 in0.0 mm 0.00 in0.0 mm
09:40 PM 39.0°F3.9°C 27.9°F-2.3°C 64% 4.6 mph WSW7.4 kmh WSW 4.6 mph7.4 kmh 29.54 in1000.3 mb - 0.00 in0.0 mm 0.00 in0.0 mm
09:45 PM 38.9°F3.8°C 27.8°F-2.3°C 64% 4.6 mph SSW7.4 kmh SSW 5.8 mph9.3 kmh 29.55 in1000.7 mb - 0.00 in0.0 mm 0.00 in0.0 mm
09:50 PM 38.8°F3.8°C 28.1°F-2.2°C 65% 5.8 mph SSW9.3 kmh SSW 5.8 mph9.3 kmh 29.55 in1000.7 mb - 0.00 in0.0 mm 0.00 in0.0 mm
09:55 PM 38.8°F3.8°C 28.1°F-2.2°C 65% 4.6 mph SSW7.4 kmh SSW 5.8 mph9.3 kmh 29.55 in1000.7 mb - 0.00 in0.0 mm 0.00 in0.0 mm
10:00 PM 38.7°F3.7°C 27.9°F-2.3°C 65% 5.8 mph SSW9.3 kmh SSW 5.8 mph9.3 kmh 29.56 in1001.0 mb - 0.00 in0.0 mm 0.00 in0.0 mm
10:10 PM 38.3°F3.5°C 27.6°F-2.4°C 65% 4.6 mph SSW7.4 kmh SSW 5.8 mph9.3 kmh 29.56 in1001.0 mb - 0.00 in0.0 mm 0.00 in0.0 mm
10:15 PM 38.3°F3.5°C 27.9°F-2.3°C 66% 5.8 mph SSW9.3 kmh SSW 5.8 mph9.3 kmh 29.55 in1000.7 mb - 0.00 in0.0 mm 0.00 in0.0 mm
10:20 PM 38.1°F3.4°C 27.8°F-2.3°C 66% 5.8 mph SSW9.3 kmh SSW 8.1 mph13.0 kmh 29.55 in1000.7 mb - 0.00 in0.0 mm 0.00 in0.0 mm
10:25 PM 38.1°F3.4°C 27.8°F-2.3°C 66% 4.6 mph WSW7.4 kmh WSW 5.8 mph9.3 kmh 29.55 in1000.7 mb - 0.00 in0.0 mm 0.00 in0.0 mm
10:30 PM 37.9°F3.3°C 27.6°F-2.4°C 66% 4.6 mph SW7.4 kmh SW 4.6 mph7.4 kmh 29.55 in1000.7 mb - 0.00 in0.0 mm 0.00 in0.0 mm
10:35 PM 38.1°F3.4°C 27.8°F-2.3°C 66% 4.6 mph SSW7.4 kmh SSW 4.6 mph7.4 kmh 29.55 in1000.7 mb - 0.00 in0.0 mm 0.00 in0.0 mm
10:45 PM 37.8°F3.2°C 27.4°F-2.6°C 66% 3.5 mph SW5.6 kmh SW 3.5 mph5.6 kmh 29.55 in1000.7 mb - 0.00 in0.0 mm 0.00 in0.0 mm
10:50 PM 37.6°F3.1°C 27.2°F-2.7°C 66% 3.5 mph SSW5.6 kmh SSW 4.6 mph7.4 kmh 29.55 in1000.7 mb - 0.00 in0.0 mm 0.00 in0.0 mm
10:55 PM 37.6°F3.1°C 27.6°F-2.4°C 67% 3.5 mph SSW5.6 kmh SSW 4.6 mph7.4 kmh 29.55 in1000.7 mb - 0.00 in0.0 mm 0.00 in0.0 mm
11:00 PM 37.6°F3.1°C 27.6°F-2.4°C 67% 3.5 mph SSW5.6 kmh SSW 3.5 mph5.6 kmh 29.55 in1000.7 mb - 0.00 in0.0 mm 0.00 in0.0 mm
11:10 PM 37.6°F3.1°C 27.6°F-2.4°C 67% 2.3 mph SW3.7 kmh SW 3.5 mph5.6 kmh 29.55 in1000.7 mb - 0.00 in0.0 mm 0.00 in0.0 mm
11:15 PM 37.4°F3.0°C 27.4°F-2.6°C 67% 3.5 mph SSW5.6 kmh SSW 3.5 mph5.6 kmh 29.55 in1000.7 mb - 0.00 in0.0 mm 0.00 in0.0 mm
11:20 PM 37.2°F2.9°C 27.3°F-2.6°C 67% 2.3 mph SSW3.7 kmh SSW 3.5 mph5.6 kmh 29.55 in1000.7 mb - 0.00 in0.0 mm 0.00 in0.0 mm
11:25 PM 37.0°F2.8°C 27.1°F-2.7°C 67% 3.5 mph SSW5.6 kmh SSW 3.5 mph5.6 kmh 29.55 in1000.7 mb - 0.00 in0.0 mm 0.00 in0.0 mm
11:30 PM 37.0°F2.8°C 27.1°F-2.7°C 67% 2.3 mph SSW3.7 kmh SSW 3.5 mph5.6 kmh 29.55 in1000.7 mb - 0.00 in0.0 mm 0.00 in0.0 mm
11:35 PM 37.0°F2.8°C 27.5°F-2.5°C 68% 1.2 mph WSW1.9 kmh WSW 3.5 mph5.6 kmh 29.55 in1000.7 mb - 0.00 in0.0 mm 0.00 in0.0 mm
11:40 PM 37.0°F2.8°C 27.5°F-2.5°C 68% 2.3 mph SW3.7 kmh SW 3.5 mph5.6 kmh 29.55 in1000.7 mb - 0.00 in0.0 mm 0.00 in0.0 mm
11:45 PM 37.0°F2.8°C 27.5°F-2.5°C 68% 3.5 mph SSW5.6 kmh SSW 4.6 mph7.4 kmh 29.55 in1000.7 mb - 0.00 in0.0 mm 0.00 in0.0 mm
11:50 PM 37.2°F2.9°C 27.6°F-2.4°C 68% 3.5 mph SSW5.6 kmh SSW 4.6 mph7.4 kmh 29.55 in1000.7 mb - 0.00 in0.0 mm 0.00 in0.0 mm
11:55 PM 37.4°F3.0°C 28.2°F-2.1°C 69% 3.5 mph SW5.6 kmh SW 3.5 mph5.6 kmh 29.55 in1000.7 mb - 0.00 in0.0 mm 0.00 in0.0 mm